createdAt,value
2023-03-06T00:00:28.740Z,2.2
2023-03-06T00:02:24.587Z,2.2
2023-03-06T00:04:24.222Z,2.2
2023-03-06T00:06:23.882Z,2.3
2023-03-06T00:08:24.033Z,2.3
2023-03-06T00:10:25.688Z,2.2
2023-03-06T00:12:22.435Z,2.3
2023-03-06T00:14:21.838Z,2.3
2023-03-06T00:16:22.185Z,2.3
2023-03-06T00:18:20.951Z,2.3
2023-03-06T00:20:21.349Z,2.3
2023-03-06T00:22:20.839Z,2.2
2023-03-06T00:24:19.750Z,2.2
2023-03-06T00:26:19.276Z,2.1
2023-03-06T00:28:18.727Z,2.2
2023-03-06T00:30:20.732Z,2.2
2023-03-06T00:32:17.815Z,2.2
2023-03-06T00:34:17.708Z,2.2
2023-03-06T00:36:16.982Z,2.2
2023-03-06T00:38:16.415Z,2.2
2023-03-06T00:40:17.895Z,2.1
2023-03-06T00:42:16.472Z,2.2
2023-03-06T00:46:14.881Z,2.2
2023-03-06T00:48:14.064Z,2.2
2023-03-06T00:50:13.643Z,2.2
2023-03-06T00:52:13.529Z,2.2
2023-03-06T00:54:12.723Z,2.2
2023-03-06T00:56:12.428Z,2.2
2023-03-06T00:58:12.447Z,2.2
2023-03-06T01:00:11.830Z,2.2
2023-03-06T01:02:11.064Z,2.2
2023-03-06T01:04:11.078Z,2.2
2023-03-06T01:06:09.930Z,2.2
2023-03-06T01:08:09.564Z,2.2
2023-03-06T01:10:10.715Z,2.2
2023-03-06T01:12:09.134Z,2.2
2023-03-06T01:14:08.276Z,2.2
2023-03-06T01:16:09.780Z,2.2
2023-03-06T01:18:07.197Z,2.2
2023-03-06T01:20:09.640Z,2.1
2023-03-06T01:22:06.640Z,2.1
2023-03-06T01:24:06.277Z,2.1
2023-03-06T01:26:05.868Z,2.1
2023-03-06T01:28:04.862Z,2.1
2023-03-06T01:30:05.007Z,2.1
2023-03-06T01:32:04.334Z,2.0
2023-03-06T01:34:03.563Z,2.1
2023-03-06T01:36:03.919Z,2.1
2023-03-06T01:38:02.418Z,2.1
2023-03-06T01:40:02.732Z,2.1
2023-03-06T01:44:01.451Z,2.1
2023-03-06T01:46:20.022Z,2.1
2023-03-06T01:48:00.124Z,2.1
2023-03-06T01:50:02.806Z,2.0
2023-03-06T01:52:01.531Z,2.1
2023-03-06T01:54:02.080Z,2.0
2023-03-06T01:58:02.816Z,2.1
2023-03-06T02:00:03.096Z,2.0
2023-03-06T02:02:00.669Z,2.0
2023-03-06T02:03:56.974Z,2.0
2023-03-06T02:05:58.156Z,2.0
2023-03-06T02:07:56.735Z,2.0
2023-03-06T02:09:55.515Z,2.0
2023-03-06T02:11:54.543Z,2.0
2023-03-06T02:13:54.503Z,2.0
2023-03-06T02:15:54.186Z,2.0
2023-03-06T02:17:53.609Z,2.0
2023-03-06T02:20:01.961Z,2.0
2023-03-06T02:21:52.574Z,1.9
2023-03-06T02:24:07.689Z,1.9
2023-03-06T02:25:52.845Z,1.9
2023-03-06T02:27:51.032Z,2.0
2023-03-06T02:29:50.749Z,2.0
2023-03-06T02:31:50.187Z,2.0
2023-03-06T02:34:00.616Z,2.0
2023-03-06T02:35:52.287Z,2.0
2023-03-06T02:37:48.999Z,2.0
2023-03-06T02:39:53.910Z,2.0
2023-03-06T02:41:47.709Z,2.0
2023-03-06T02:45:50.017Z,1.9
2023-03-06T02:47:46.369Z,1.9
2023-03-06T02:49:46.085Z,1.8
2023-03-06T02:51:45.813Z,1.9
2023-03-06T02:53:45.095Z,2.0
2023-03-06T02:55:45.487Z,2.0
2023-03-06T02:57:44.425Z,2.0
2023-03-06T02:59:43.613Z,1.9
2023-03-06T03:01:43.354Z,1.9
2023-03-06T03:03:43.094Z,1.8
2023-03-06T03:05:42.402Z,1.8
2023-03-06T03:07:41.991Z,1.8
2023-03-06T03:09:41.609Z,1.8
2023-03-06T03:11:40.912Z,1.8
2023-03-06T03:13:40.412Z,1.8
2023-03-06T03:17:40.603Z,1.8
2023-03-06T03:19:39.192Z,1.9
2023-03-06T03:21:40.024Z,1.8
2023-03-06T03:23:38.533Z,1.8
2023-03-06T03:25:37.825Z,1.8
2023-03-06T03:27:37.250Z,1.8
2023-03-06T03:29:37.274Z,1.8
2023-03-06T03:31:36.376Z,1.8
2023-03-06T03:33:37.509Z,1.8
2023-03-06T03:35:36.306Z,1.8
2023-03-06T03:37:35.610Z,1.7
2023-03-06T03:39:34.543Z,1.8
2023-03-06T03:41:34.302Z,1.7
2023-03-06T03:43:33.530Z,1.8
2023-03-06T03:45:33.314Z,1.8
2023-03-06T03:49:32.278Z,1.7
2023-03-06T03:51:32.133Z,1.7
2023-03-06T03:53:31.424Z,1.7
2023-03-06T03:55:30.851Z,1.7
2023-03-06T03:57:30.560Z,1.6
2023-03-06T04:01:29.537Z,1.7
2023-03-06T04:03:28.926Z,1.6
2023-03-06T04:05:28.605Z,1.7
2023-03-06T04:07:28.013Z,1.7
2023-03-06T04:09:27.933Z,1.7
2023-03-06T04:11:27.181Z,1.7
2023-03-06T04:13:26.817Z,1.7
2023-03-06T04:15:26.163Z,1.7
2023-03-06T04:17:26.526Z,1.7
2023-03-06T04:21:25.076Z,1.7
2023-03-06T04:23:26.828Z,1.7
2023-03-06T04:25:23.940Z,1.7
2023-03-06T04:27:23.533Z,1.6
2023-03-06T04:29:23.104Z,1.6
2023-03-06T04:31:22.643Z,1.6
2023-03-06T04:33:22.397Z,1.6
2023-03-06T04:35:21.863Z,1.6
2023-03-06T04:37:23.134Z,1.5
2023-03-06T04:39:20.742Z,1.6
2023-03-06T04:41:20.392Z,1.6
2023-03-06T04:43:19.872Z,1.6
2023-03-06T04:45:19.750Z,1.5
2023-03-06T04:47:19.448Z,1.5
2023-03-06T04:49:18.554Z,1.4
2023-03-06T04:51:18.079Z,1.3
2023-03-06T04:53:18.614Z,1.3
2023-03-06T04:55:18.077Z,1.2
2023-03-06T04:57:17.134Z,1.1
2023-03-06T04:59:16.098Z,1.1
2023-03-06T05:01:15.815Z,1.1
2023-03-06T05:03:15.411Z,1.1
2023-03-06T05:05:16.537Z,1.0
2023-03-06T05:07:14.228Z,1.0
2023-03-06T05:09:14.059Z,1.0
2023-03-06T05:11:13.336Z,1.0
2023-03-06T05:13:12.900Z,0.9
2023-03-06T05:15:13.360Z,1.0
2023-03-06T05:17:12.282Z,1.0
2023-03-06T05:23:11.740Z,0.9
2023-03-06T05:25:10.852Z,0.8
2023-03-06T05:27:09.584Z,0.9
2023-03-06T05:29:09.197Z,0.9
2023-03-06T05:31:08.717Z,1.0
2023-03-06T05:33:08.100Z,0.9
2023-03-06T05:35:15.776Z,0.9
2023-03-06T05:37:07.655Z,0.9
2023-03-06T05:39:06.913Z,1.0
2023-03-06T05:41:10.906Z,0.9
2023-03-06T05:43:06.322Z,1.0
2023-03-06T05:45:06.873Z,1.0
2023-03-06T05:47:05.231Z,1.0
2023-03-06T05:49:04.360Z,1.1
2023-03-06T05:51:04.570Z,1.1
2023-03-06T05:53:03.681Z,1.1
2023-03-06T05:55:03.413Z,1.1
2023-03-06T05:57:03.904Z,1.1
2023-03-06T05:59:02.332Z,1.1
2023-03-06T06:01:08.598Z,1.1
2023-03-06T06:03:01.201Z,1.1
2023-03-06T06:05:01.337Z,1.1
2023-03-06T06:07:00.511Z,1.1
2023-03-06T06:08:59.674Z,1.2
2023-03-06T06:12:59.114Z,1.1
2023-03-06T06:14:58.303Z,1.2
2023-03-06T06:16:58.027Z,1.2
2023-03-06T06:18:57.638Z,1.2
2023-03-06T06:20:56.757Z,1.1
2023-03-06T06:22:57.055Z,1.1
2023-03-06T06:24:56.303Z,1.0
2023-03-06T06:26:57.146Z,1.0
2023-03-06T06:28:55.012Z,1.0
2023-03-06T06:30:55.011Z,1.0
2023-03-06T06:32:54.059Z,0.9
2023-03-06T06:34:53.889Z,0.9
2023-03-06T06:36:53.852Z,0.9
2023-03-06T06:38:52.714Z,0.8
2023-03-06T06:41:26.833Z,0.8
2023-03-06T06:42:52.179Z,0.8
2023-03-06T06:44:51.355Z,0.9
2023-03-06T06:47:22.343Z,0.9
2023-03-06T06:48:53.747Z,0.8
2023-03-06T06:54:50.325Z,0.8
2023-03-06T06:56:48.310Z,0.9
2023-03-06T06:58:50.390Z,0.7
2023-03-06T07:00:47.576Z,0.9
2023-03-06T07:02:48.290Z,0.9
2023-03-06T07:05:02.010Z,0.9
2023-03-06T07:06:46.386Z,0.9
2023-03-06T07:10:45.008Z,0.9
2023-03-06T07:12:44.873Z,0.9
2023-03-06T07:14:43.898Z,1.0
2023-03-06T07:16:43.446Z,1.1
2023-03-06T07:18:43.252Z,1.2
2023-03-06T07:20:42.522Z,1.2
2023-03-06T07:22:50.992Z,1.2
2023-03-06T07:24:41.865Z,1.2
2023-03-06T07:26:45.351Z,1.3
2023-03-06T07:28:51.872Z,1.4
2023-03-06T07:30:41.164Z,1.4
2023-03-06T07:32:39.883Z,1.5
2023-03-06T07:36:39.665Z,1.5
2023-03-06T07:40:37.930Z,1.6
2023-03-06T07:42:37.577Z,1.6
2023-03-06T07:44:37.352Z,1.7
2023-03-06T07:46:36.452Z,1.7
2023-03-06T07:48:37.017Z,1.8
2023-03-06T07:50:35.526Z,1.8
2023-03-06T07:52:35.418Z,1.8
2023-03-06T07:54:34.791Z,1.8
2023-03-06T07:56:34.352Z,1.8
2023-03-06T07:58:34.536Z,1.8
2023-03-06T08:00:33.536Z,1.9
2023-03-06T08:02:32.751Z,1.9
2023-03-06T08:04:33.125Z,1.9
2023-03-06T08:06:32.508Z,2.0
2023-03-06T08:08:32.951Z,2.0
2023-03-06T08:10:31.089Z,2.1
2023-03-06T08:12:30.737Z,2.2
2023-03-06T08:14:30.028Z,2.2
2023-03-06T08:16:30.125Z,2.2
2023-03-06T08:18:29.314Z,2.3
2023-03-06T08:20:28.771Z,2.4
2023-03-06T08:22:28.265Z,2.4
2023-03-06T08:24:27.943Z,2.5
2023-03-06T08:26:29.465Z,2.5
2023-03-06T08:28:27.574Z,2.6
2023-03-06T08:30:26.445Z,2.6
2023-03-06T08:32:26.690Z,2.6
2023-03-06T08:34:26.047Z,2.7
2023-03-06T08:36:25.952Z,2.8
2023-03-06T08:38:24.541Z,2.8
2023-03-06T08:40:26.073Z,2.8
2023-03-06T08:42:23.922Z,2.9
2023-03-06T08:44:23.244Z,3.0
2023-03-06T08:46:25.093Z,3.0
2023-03-06T08:48:23.485Z,3.0
2023-03-06T08:50:21.884Z,3.1
2023-03-06T08:52:21.466Z,3.1
2023-03-06T08:54:21.220Z,3.2
2023-03-06T08:56:22.721Z,3.2
2023-03-06T08:58:20.243Z,3.2
2023-03-06T09:00:20.366Z,3.3
2023-03-06T09:02:19.238Z,3.4
2023-03-06T09:04:18.774Z,3.4
2023-03-06T09:06:18.845Z,3.5
2023-03-06T09:08:18.172Z,3.5
2023-03-06T09:10:19.697Z,3.6
2023-03-06T09:14:16.908Z,3.7
2023-03-06T09:16:16.515Z,3.8
2023-03-06T09:18:15.868Z,3.8
2023-03-06T09:20:17.351Z,3.9
2023-03-06T09:22:14.881Z,4.0
2023-03-06T09:24:14.599Z,4.0
2023-03-06T09:26:14.473Z,4.1
2023-03-06T09:28:13.566Z,4.2
2023-03-06T09:30:14.733Z,4.2
2023-03-06T09:32:12.915Z,4.2
2023-03-06T09:34:12.573Z,4.3
2023-03-06T09:36:14.788Z,4.3
2023-03-06T09:38:11.679Z,4.2
2023-03-06T09:40:15.945Z,4.2
2023-03-06T09:42:17.234Z,4.2
2023-03-06T09:44:14.759Z,4.0
2023-03-06T09:48:14.274Z,4.0
2023-03-06T09:50:23.476Z,4.0
2023-03-06T09:52:25.005Z,4.0
2023-03-06T09:54:12.299Z,4.0
2023-03-06T09:56:14.131Z,4.0
2023-03-06T09:58:15.199Z,4.1
2023-03-06T10:00:13.607Z,4.1
2023-03-06T10:02:14.108Z,4.1
2023-03-06T10:04:16.803Z,4.2
2023-03-06T10:06:14.953Z,4.1
2023-03-06T10:08:16.796Z,4.2
2023-03-06T10:10:06.266Z,4.3
2023-03-06T10:12:16.383Z,4.4
2023-03-06T10:14:14.744Z,4.4
2023-03-06T10:16:14.363Z,4.5
2023-03-06T10:18:04.299Z,4.5
2023-03-06T10:20:15.595Z,4.5
2023-03-06T10:22:06.310Z,4.5
2023-03-06T10:24:15.431Z,4.5
2023-03-06T10:26:10.099Z,4.4
2023-03-06T10:28:10.824Z,4.4
2023-03-06T10:30:20.043Z,4.4
2023-03-06T10:32:10.528Z,4.4
2023-03-06T10:34:14.947Z,4.4
2023-03-06T10:35:59.398Z,4.4
2023-03-06T10:38:09.144Z,4.4
2023-03-06T10:40:03.205Z,4.4
2023-03-06T10:41:58.083Z,4.5
2023-03-06T10:44:17.511Z,4.5
2023-03-06T10:45:57.608Z,4.5
2023-03-06T10:48:09.936Z,4.5
2023-03-06T10:49:58.863Z,4.5
2023-03-06T10:51:59.833Z,4.6
2023-03-06T10:53:58.018Z,4.6
2023-03-06T10:55:57.460Z,4.7
2023-03-06T10:59:56.852Z,4.7
2023-03-06T11:01:56.004Z,4.6
2023-03-06T11:05:59.249Z,4.6
2023-03-06T11:07:55.712Z,4.7
2023-03-06T11:10:02.978Z,4.7
2023-03-06T11:12:11.785Z,4.7
2023-03-06T11:13:56.801Z,4.8
2023-03-06T11:15:56.495Z,4.8
2023-03-06T11:17:54.634Z,4.9
2023-03-06T11:19:50.443Z,4.9
2023-03-06T11:22:01.792Z,4.9
2023-03-06T11:23:51.026Z,4.9
2023-03-06T11:25:55.408Z,4.9
2023-03-06T11:27:55.722Z,4.8
2023-03-06T11:29:50.407Z,4.9
2023-03-06T11:31:53.511Z,4.8
2023-03-06T11:33:53.437Z,5.0
2023-03-06T11:35:53.557Z,5.1
2023-03-06T11:37:52.908Z,5.1
2023-03-06T11:39:55.031Z,5.1
2023-03-06T11:41:55.713Z,5.2
2023-03-06T11:43:54.032Z,5.2
2023-03-06T11:45:51.389Z,5.4
2023-03-06T11:47:51.824Z,5.5
2023-03-06T11:49:49.803Z,5.5
2023-03-06T11:51:50.531Z,5.6
2023-03-06T11:53:43.976Z,5.7
2023-03-06T11:55:50.760Z,5.7
2023-03-06T11:57:51.769Z,5.9
2023-03-06T12:00:02.406Z,6.0
2023-03-06T12:01:49.819Z,6.1
2023-03-06T12:03:58.186Z,6.1
2023-03-06T12:05:45.741Z,6.1
2023-03-06T12:07:48.578Z,6.1
2023-03-06T12:09:45.820Z,6.1
2023-03-06T12:11:47.855Z,6.1
2023-03-06T12:13:56.321Z,6.0
2023-03-06T12:15:52.979Z,6.1
2023-03-06T12:17:54.615Z,6.1
2023-03-06T12:19:51.201Z,6.0
2023-03-06T12:21:48.764Z,5.9
2023-03-06T12:23:53.298Z,5.7
2023-03-06T12:25:40.889Z,5.7
2023-03-06T12:27:47.735Z,5.5
2023-03-06T12:29:51.834Z,5.4
2023-03-06T12:31:48.816Z,5.4
2023-03-06T12:33:44.272Z,5.4
2023-03-06T12:35:52.891Z,5.3
2023-03-06T12:37:48.435Z,5.4
2023-03-06T12:41:45.617Z,5.4
2023-03-06T12:43:50.958Z,5.4
2023-03-06T12:45:35.991Z,5.4
2023-03-06T12:47:40.392Z,5.3
2023-03-06T12:49:37.751Z,5.3
2023-03-06T12:51:33.600Z,5.3
2023-03-06T12:53:34.446Z,5.3
2023-03-06T12:55:39.654Z,5.3
2023-03-06T12:57:32.007Z,5.3
2023-03-06T12:59:38.004Z,5.2
2023-03-06T13:01:49.694Z,5.1
2023-03-06T13:03:38.294Z,5.1
2023-03-06T13:05:41.813Z,5.1
2023-03-06T13:07:51.739Z,5.1
2023-03-06T13:09:37.539Z,5.0
2023-03-06T13:11:48.878Z,4.9
2023-03-06T13:13:31.656Z,4.9
2023-03-06T13:15:40.038Z,4.9
2023-03-06T13:17:35.099Z,4.8
2023-03-06T13:19:27.957Z,4.8
2023-03-06T13:21:45.863Z,4.8
2023-03-06T13:23:46.607Z,4.8
2023-03-06T13:25:42.186Z,4.8
2023-03-06T13:27:45.982Z,4.8
2023-03-06T13:29:45.412Z,4.8
2023-03-06T13:31:28.210Z,4.8
2023-03-06T13:33:44.614Z,4.8
2023-03-06T13:35:44.322Z,4.9
2023-03-06T13:37:36.234Z,4.9
2023-03-06T13:39:23.882Z,4.9
2023-03-06T13:41:32.749Z,4.9
2023-03-06T13:43:24.107Z,5.0
2023-03-06T13:45:24.804Z,5.0
2023-03-06T13:47:31.211Z,5.1
2023-03-06T13:49:23.850Z,5.2
2023-03-06T13:51:24.976Z,5.3
2023-03-06T13:53:39.672Z,5.4
2023-03-06T13:57:35.814Z,5.6
2023-03-06T13:59:36.376Z,5.5
2023-03-06T14:01:32.641Z,5.6
2023-03-06T14:03:38.783Z,5.6
2023-03-06T14:05:19.438Z,5.6
2023-03-06T14:07:23.170Z,5.6
2023-03-06T14:09:26.123Z,5.6
2023-03-06T14:11:19.794Z,5.6
2023-03-06T14:13:21.885Z,5.6
2023-03-06T14:15:19.661Z,5.7
2023-03-06T14:17:23.207Z,5.6
2023-03-06T14:19:17.759Z,5.6
2023-03-06T14:23:22.575Z,5.6
2023-03-06T14:25:19.231Z,5.5
2023-03-06T14:27:16.675Z,5.6
2023-03-06T14:29:20.585Z,5.6
2023-03-06T14:31:17.889Z,5.6
2023-03-06T14:33:26.644Z,5.7
2023-03-06T14:35:19.745Z,5.8
2023-03-06T14:37:19.704Z,5.7
2023-03-06T14:39:14.436Z,5.7
2023-03-06T14:43:18.127Z,5.8
2023-03-06T14:45:16.052Z,6.0
2023-03-06T14:47:21.018Z,6.1
2023-03-06T14:49:12.324Z,6.1
2023-03-06T14:51:15.172Z,5.9
2023-03-06T14:53:15.997Z,5.9
2023-03-06T14:55:10.525Z,5.9
2023-03-06T14:57:13.566Z,6.0
2023-03-06T14:59:12.630Z,6.0
2023-03-06T15:01:10.043Z,6.0
2023-03-06T15:03:14.380Z,6.0
2023-03-06T15:05:19.573Z,5.9
2023-03-06T15:07:10.282Z,5.9
2023-03-06T15:09:14.195Z,5.9
2023-03-06T15:11:06.397Z,5.9
2023-03-06T15:13:08.492Z,5.9
2023-03-06T15:15:24.871Z,5.9
2023-03-06T15:17:20.756Z,6.0
2023-03-06T15:19:05.250Z,6.0
2023-03-06T15:21:08.347Z,6.0
2023-03-06T15:23:14.857Z,6.0
2023-03-06T15:25:17.769Z,6.0
2023-03-06T15:27:05.306Z,5.9
2023-03-06T15:29:19.363Z,5.9
2023-03-06T15:31:16.438Z,5.9
2023-03-06T15:35:21.069Z,5.8
2023-03-06T15:37:20.662Z,5.8
2023-03-06T15:39:00.924Z,5.8
2023-03-06T15:41:01.826Z,5.8
2023-03-06T15:43:00.391Z,5.7
2023-03-06T15:45:11.190Z,5.7
2023-03-06T15:47:08.530Z,5.6
2023-03-06T15:49:02.861Z,5.6
2023-03-06T15:50:58.457Z,5.5
2023-03-06T15:52:58.085Z,5.5
2023-03-06T15:54:57.644Z,5.4
2023-03-06T15:56:57.036Z,5.4
2023-03-06T15:58:57.581Z,5.4
2023-03-06T16:00:56.410Z,5.4
2023-03-06T16:04:55.916Z,5.2
2023-03-06T16:06:55.320Z,5.2
2023-03-06T16:08:54.739Z,5.2
2023-03-06T16:10:54.419Z,5.2
2023-03-06T16:12:56.821Z,5.2
2023-03-06T16:15:01.134Z,5.2
2023-03-06T16:16:53.998Z,5.2
2023-03-06T16:18:52.946Z,5.1
2023-03-06T16:20:52.597Z,5.1
2023-03-06T16:22:52.795Z,5.0
2023-03-06T16:24:51.752Z,5.0
2023-03-06T16:26:53.884Z,5.0
2023-03-06T16:28:51.082Z,5.0
2023-03-06T16:30:50.671Z,4.9
2023-03-06T16:32:50.079Z,4.9
2023-03-06T16:34:49.662Z,4.9
2023-03-06T16:36:49.661Z,4.9
2023-03-06T16:38:49.547Z,4.9
2023-03-06T16:40:48.680Z,4.9
2023-03-06T16:42:49.439Z,4.9
2023-03-06T16:44:47.901Z,4.8
2023-03-06T16:46:48.975Z,4.8
2023-03-06T16:48:47.431Z,4.8
2023-03-06T16:50:46.535Z,4.8
2023-03-06T16:52:46.243Z,4.8
2023-03-06T16:54:45.737Z,4.8
2023-03-06T16:56:45.430Z,4.8
2023-03-06T16:58:45.921Z,4.8
2023-03-06T17:00:44.408Z,4.8
2023-03-06T17:02:46.536Z,4.8
2023-03-06T17:04:43.858Z,4.8
2023-03-06T17:06:43.400Z,4.7
2023-03-06T17:08:43.786Z,4.7
2023-03-06T17:10:42.488Z,4.7
2023-03-06T17:12:42.827Z,4.7
2023-03-06T17:14:41.581Z,4.7
2023-03-06T17:16:41.576Z,4.7
2023-03-06T17:18:42.179Z,4.7
2023-03-06T17:20:47.708Z,4.7
2023-03-06T17:22:40.649Z,4.6
2023-03-06T17:24:39.647Z,4.6
2023-03-06T17:26:39.255Z,4.6
2023-03-06T17:28:39.416Z,4.6
2023-03-06T17:32:40.040Z,4.6
2023-03-06T17:34:38.035Z,4.6
2023-03-06T17:36:37.228Z,4.6
2023-03-06T17:38:36.925Z,4.6
2023-03-06T17:40:36.582Z,4.6
2023-03-06T17:42:36.023Z,4.6
2023-03-06T17:44:39.541Z,4.6
2023-03-06T17:46:35.169Z,4.6
2023-03-06T17:48:34.945Z,4.5
2023-03-06T17:50:34.265Z,4.6
2023-03-06T17:52:34.119Z,4.5
2023-03-06T17:54:33.648Z,4.5
2023-03-06T17:56:33.185Z,4.6
2023-03-06T17:58:33.821Z,4.5
2023-03-06T18:00:32.475Z,4.6
2023-03-06T18:02:31.805Z,4.5
2023-03-06T18:04:31.614Z,4.5
2023-03-06T18:06:32.630Z,4.5
2023-03-06T18:08:31.204Z,4.5
2023-03-06T18:10:30.375Z,4.5
2023-03-06T18:12:29.710Z,4.5
2023-03-06T18:14:29.339Z,4.5
2023-03-06T18:16:29.196Z,4.4
2023-03-06T18:18:28.958Z,4.4
2023-03-06T18:20:28.598Z,4.4
2023-03-06T18:22:27.852Z,4.4
2023-03-06T18:24:27.393Z,4.4
2023-03-06T18:30:26.620Z,4.3
2023-03-06T18:32:25.828Z,4.4
2023-03-06T18:36:27.061Z,4.3
2023-03-06T18:38:24.451Z,4.2
2023-03-06T18:40:24.960Z,4.2
2023-03-06T18:42:25.254Z,4.2
2023-03-06T18:44:23.534Z,4.1
2023-03-06T18:46:24.011Z,4.0
2023-03-06T18:48:23.507Z,3.9
2023-03-06T18:50:22.024Z,4.0
2023-03-06T18:52:21.406Z,3.9
2023-03-06T18:54:21.406Z,3.9
2023-03-06T18:56:21.867Z,3.9
2023-03-06T18:58:20.675Z,3.9
2023-03-06T19:00:20.189Z,3.8
2023-03-06T19:02:19.931Z,3.8
2023-03-06T19:04:18.866Z,3.9
2023-03-06T19:06:19.333Z,3.7
2023-03-06T19:08:18.132Z,3.7
2023-03-06T19:10:17.772Z,3.8
2023-03-06T19:12:17.270Z,3.8
2023-03-06T19:14:16.893Z,3.8
2023-03-06T19:16:17.669Z,3.8
2023-03-06T19:18:17.191Z,3.7
2023-03-06T19:20:15.976Z,3.7
2023-03-06T19:24:14.780Z,3.7
2023-03-06T19:26:15.195Z,3.7
2023-03-06T19:28:13.789Z,3.7
2023-03-06T19:30:14.744Z,3.8
2023-03-06T19:32:13.747Z,3.7
2023-03-06T19:34:12.572Z,3.8
2023-03-06T19:36:14.838Z,3.8
2023-03-06T19:38:11.912Z,3.8
2023-03-06T19:40:12.258Z,3.8
2023-03-06T19:42:13.784Z,3.8
2023-03-06T19:44:11.262Z,3.8
2023-03-06T19:46:10.969Z,3.8
2023-03-06T19:48:11.453Z,3.8
2023-03-06T19:50:09.868Z,3.8
2023-03-06T19:52:08.624Z,3.7
2023-03-06T19:54:13.132Z,3.8
2023-03-06T19:56:10.811Z,3.8
2023-03-06T19:58:08.100Z,3.9
2023-03-06T20:00:07.774Z,3.9
2023-03-06T20:02:09.086Z,3.9
2023-03-06T20:04:06.327Z,4.0
2023-03-06T20:06:11.104Z,4.0
2023-03-06T20:08:05.264Z,4.0
2023-03-06T20:12:07.116Z,4.0
2023-03-06T20:14:06.110Z,4.0
2023-03-06T20:16:04.052Z,4.0
2023-03-06T20:18:05.311Z,4.0
2023-03-06T20:20:03.075Z,4.1
2023-03-06T20:22:02.608Z,4.1
2023-03-06T20:24:03.003Z,4.0
2023-03-06T20:26:03.514Z,4.1
2023-03-06T20:28:01.174Z,4.1
2023-03-06T20:30:01.746Z,4.1
2023-03-06T20:32:00.249Z,4.1
2023-03-06T20:33:59.898Z,4.1
2023-03-06T20:35:59.304Z,4.1
2023-03-06T20:37:59.726Z,4.2
2023-03-06T20:39:58.488Z,4.1
2023-03-06T20:41:59.125Z,4.1
2023-03-06T20:43:58.819Z,4.1
2023-03-06T20:45:58.737Z,4.1
2023-03-06T20:47:57.221Z,4.1
2023-03-06T20:49:56.299Z,4.1
2023-03-06T20:51:56.080Z,4.0
2023-03-06T20:53:57.012Z,4.0
2023-03-06T20:55:56.101Z,4.1
2023-03-06T20:57:54.734Z,4.0
2023-03-06T20:59:54.218Z,4.1
2023-03-06T21:01:53.815Z,4.1
2023-03-06T21:03:55.778Z,4.0
2023-03-06T21:05:53.306Z,4.0
2023-03-06T21:07:52.491Z,4.0
2023-03-06T21:09:52.051Z,4.0
2023-03-06T21:11:51.657Z,3.9
2023-03-06T21:13:51.903Z,3.9
2023-03-06T21:15:51.008Z,4.0
2023-03-06T21:17:50.880Z,4.0
2023-03-06T21:19:51.754Z,4.0
2023-03-06T21:21:49.552Z,4.0
2023-03-06T21:23:49.737Z,4.0
2023-03-06T21:25:51.055Z,4.0
2023-03-06T21:27:48.517Z,4.0
2023-03-06T21:29:48.294Z,4.0
2023-03-06T21:31:47.569Z,4.0
2023-03-06T21:35:47.189Z,4.0
2023-03-06T21:39:45.943Z,4.0
2023-03-06T21:41:45.823Z,4.0
2023-03-06T21:43:45.444Z,4.0
2023-03-06T21:45:46.324Z,4.0
2023-03-06T21:47:46.835Z,3.9
2023-03-06T21:51:43.385Z,4.0
2023-03-06T21:53:44.210Z,4.0
2023-03-06T21:55:42.811Z,4.0
2023-03-06T22:01:41.717Z,4.0
2023-03-06T22:03:40.961Z,4.0
2023-03-06T22:05:40.926Z,4.0
2023-03-06T22:07:40.611Z,4.0
2023-03-06T22:09:39.585Z,4.0
2023-03-06T22:11:39.286Z,4.0
2023-03-06T22:13:39.453Z,4.0
2023-03-06T22:15:38.343Z,4.0
2023-03-06T22:17:38.766Z,4.0
2023-03-06T22:19:37.579Z,4.0
2023-03-06T22:21:37.568Z,4.0
2023-03-06T22:23:37.648Z,4.0
2023-03-06T22:25:36.629Z,4.0
2023-03-06T22:27:36.012Z,4.0
2023-03-06T22:29:35.914Z,4.0
2023-03-06T22:31:35.156Z,4.0
2023-03-06T22:35:34.225Z,4.0
2023-03-06T22:39:33.402Z,4.0
2023-03-06T22:41:33.304Z,4.0
2023-03-06T22:43:33.324Z,4.0
2023-03-06T22:45:34.606Z,4.0
2023-03-06T22:49:31.905Z,4.0
2023-03-06T22:51:30.876Z,4.0
2023-03-06T22:53:31.743Z,4.0
2023-03-06T22:55:30.237Z,3.9
2023-03-06T22:57:29.555Z,3.9
2023-03-06T22:59:29.134Z,3.9
2023-03-06T23:03:28.296Z,3.9
2023-03-06T23:05:29.564Z,3.9
2023-03-06T23:07:27.819Z,3.9
2023-03-06T23:09:27.313Z,3.9
2023-03-06T23:11:28.959Z,3.9
2023-03-06T23:15:26.129Z,4.0
2023-03-06T23:17:25.807Z,3.9
2023-03-06T23:19:25.694Z,3.9
2023-03-06T23:21:24.789Z,3.9
2023-03-06T23:23:24.919Z,3.9
2023-03-06T23:25:23.805Z,3.9
2023-03-06T23:27:23.335Z,3.9
2023-03-06T23:29:23.116Z,3.8
2023-03-06T23:31:27.555Z,3.8
2023-03-06T23:33:22.567Z,3.8
2023-03-06T23:35:21.653Z,3.8
2023-03-06T23:37:21.143Z,3.8
2023-03-06T23:39:20.765Z,3.8
2023-03-06T23:41:21.256Z,3.8
2023-03-06T23:43:20.362Z,3.8
2023-03-06T23:45:19.547Z,3.8
2023-03-06T23:47:19.150Z,3.8
2023-03-06T23:51:20.672Z,3.8
2023-03-06T23:53:18.637Z,3.8
2023-03-06T23:55:18.040Z,3.7
2023-03-06T23:57:17.349Z,3.8
2023-03-06T23:59:16.833Z,3.8
